sensor_id;sensor_type;location;lat;lon;timestamp;pressure;altitude;pressure_sealevel;temperature;humidity
57442;BME280;43284;47.042;15.498;2023-02-21T00:02:15;97273.31;;;1.89;86.73
57442;BME280;43284;47.042;15.498;2023-02-21T00:05:00;97275.00;;;1.90;86.36
57442;BME280;43284;47.042;15.498;2023-02-21T00:07:44;97279.31;;;1.90;85.53
57442;BME280;43284;47.042;15.498;2023-02-21T00:10:29;97275.03;;;1.87;85.47
57442;BME280;43284;47.042;15.498;2023-02-21T00:13:14;97272.53;;;1.82;85.89
57442;BME280;43284;47.042;15.498;2023-02-21T00:15:58;97276.84;;;1.80;85.55
57442;BME280;43284;47.042;15.498;2023-02-21T00:18:42;97273.50;;;1.74;86.09
57442;BME280;43284;47.042;15.498;2023-02-21T00:21:29;97282.91;;;1.76;86.15
57442;BME280;43284;47.042;15.498;2023-02-21T00:24:16;97280.41;;;1.70;86.13
57442;BME280;43284;47.042;15.498;2023-02-21T00:27:01;97269.34;;;1.62;86.31
57442;BME280;43284;47.042;15.498;2023-02-21T00:29:47;97275.47;;;1.49;85.72
57442;BME280;43284;47.042;15.498;2023-02-21T00:32:31;97266.06;;;1.46;87.35
57442;BME280;43284;47.042;15.498;2023-02-21T00:35:15;97264.25;;;1.54;87.36
57442;BME280;43284;47.042;15.498;2023-02-21T00:37:58;97279.94;;;1.36;86.46
57442;BME280;43284;47.042;15.498;2023-02-21T00:40:43;97264.47;;;1.36;87.32
57442;BME280;43284;47.042;15.498;2023-02-21T00:43:32;97260.19;;;1.33;87.55
57442;BME280;43284;47.042;15.498;2023-02-21T00:46:17;97261.91;;;1.34;87.54
57442;BME280;43284;47.042;15.498;2023-02-21T00:49:01;97261.06;;;1.31;87.41
57442;BME280;43284;47.042;15.498;2023-02-21T00:51:46;97260.28;;;1.26;87.71
57442;BME280;43284;47.042;15.498;2023-02-21T00:54:31;97254.28;;;1.22;87.91
57442;BME280;43284;47.042;15.498;2023-02-21T00:57:15;97255.97;;;1.29;88.66
57442;BME280;43284;47.042;15.498;2023-02-21T00:59:59;97262.00;;;1.23;87.35
57442;BME280;43284;47.042;15.498;2023-02-21T01:02:43;97251.72;;;1.23;88.55
57442;BME280;43284;47.042;15.498;2023-02-21T01:05:27;97263.81;;;1.17;88.57
57442;BME280;43284;47.042;15.498;2023-02-21T01:08:11;97256.94;;;1.16;88.33
57442;BME280;43284;47.042;15.498;2023-02-21T01:10:56;97261.19;;;1.20;89.03
57442;BME280;43284;47.042;15.498;2023-02-21T01:13:40;97256.91;;;1.19;88.03
57442;BME280;43284;47.042;15.498;2023-02-21T01:16:28;97255.19;;;1.22;88.40
57442;BME280;43284;47.042;15.498;2023-02-21T01:19:12;97249.28;;;1.08;88.40
57442;BME280;43284;47.042;15.498;2023-02-21T01:21:56;97249.25;;;1.13;88.78
57442;BME280;43284;47.042;15.498;2023-02-21T01:24:40;97250.13;;;1.10;88.52
57442;BME280;43284;47.042;15.498;2023-02-21T01:27:24;97243.25;;;1.12;88.36
57442;BME280;43284;47.042;15.498;2023-02-21T01:30:08;97250.16;;;1.07;88.42
57442;BME280;43284;47.042;15.498;2023-02-21T01:32:52;97241.63;;;1.03;88.46
57442;BME280;43284;47.042;15.498;2023-02-21T01:35:36;97241.56;;;1.08;88.91
57442;BME280;43284;47.042;15.498;2023-02-21T01:38:20;97244.16;;;1.07;89.07
57442;BME280;43284;47.042;15.498;2023-02-21T01:41:04;97237.31;;;1.06;89.10
57442;BME280;43284;47.042;15.498;2023-02-21T01:44:44;97221.03;;;1.05;89.45
57442;BME280;43284;47.042;15.498;2023-02-21T01:47:03;97230.53;;;0.98;89.12
57442;BME280;43284;47.042;15.498;2023-02-21T01:49:47;97220.13;;;1.06;89.59
57442;BME280;43284;47.042;15.498;2023-02-21T01:52:31;97222.75;;;1.01;89.69
57442;BME280;43284;47.042;15.498;2023-02-21T01:55:16;97223.66;;;0.97;89.74
57442;BME280;43284;47.042;15.498;2023-02-21T01:58:00;97221.13;;;0.91;89.42
57442;BME280;43284;47.042;15.498;2023-02-21T02:00:44;97219.44;;;0.87;90.22
57442;BME280;43284;47.042;15.498;2023-02-21T02:03:29;97214.25;;;0.93;90.33
57442;BME280;43284;47.042;15.498;2023-02-21T02:06:15;97215.09;;;0.94;90.14
57442;BME280;43284;47.042;15.498;2023-02-21T02:09:19;97209.09;;;0.93;90.56
57442;BME280;43284;47.042;15.498;2023-02-21T02:14:50;97197.06;;;0.95;90.28
57442;BME280;43284;47.042;15.498;2023-02-21T02:28:45;97201.47;;;0.84;91.14
57442;BME280;43284;47.042;15.498;2023-02-21T02:32:01;97198.91;;;0.86;91.76
57442;BME280;43284;47.042;15.498;2023-02-21T02:42:38;97206.59;;;0.89;92.28
57442;BME280;43284;47.042;15.498;2023-02-21T02:45:24;97211.69;;;0.92;92.97
57442;BME280;43284;47.042;15.498;2023-02-21T02:47:58;97211.69;;;0.93;92.73
57442;BME280;43284;47.042;15.498;2023-02-21T02:50:27;97205.75;;;0.85;91.91
57442;BME280;43284;47.042;15.498;2023-02-21T02:52:55;97212.56;;;0.92;91.70
57442;BME280;43284;47.042;15.498;2023-02-21T02:56:00;97209.19;;;0.84;91.34
57442;BME280;43284;47.042;15.498;2023-02-21T02:58:27;97215.19;;;0.83;92.36
57442;BME280;43284;47.042;15.498;2023-02-21T03:06:45;97202.28;;;0.91;91.97
57442;BME280;43284;47.042;15.498;2023-02-21T03:09:30;97198.81;;;0.93;92.09
57442;BME280;43284;47.042;15.498;2023-02-21T03:12:06;97193.59;;;1.01;91.63
57442;BME280;43284;47.042;15.498;2023-02-21T03:14:42;97200.53;;;0.94;91.98
57442;BME280;43284;47.042;15.498;2023-02-21T03:17:12;97203.94;;;0.96;91.92
57442;BME280;43284;47.042;15.498;2023-02-21T03:19:43;97214.25;;;0.93;92.10
57442;BME280;43284;47.042;15.498;2023-02-21T03:22:17;97200.59;;;0.90;91.82
57442;BME280;43284;47.042;15.498;2023-02-21T03:24:45;97206.56;;;0.90;91.97
57442;BME280;43284;47.042;15.498;2023-02-21T03:27:13;97203.16;;;0.90;91.71
57442;BME280;43284;47.042;15.498;2023-02-21T03:29:40;97196.34;;;0.84;91.76
57442;BME280;43284;47.042;15.498;2023-02-21T03:32:16;97194.66;;;0.81;92.03
57442;BME280;43284;47.042;15.498;2023-02-21T03:34:45;97194.66;;;0.81;91.95
57442;BME280;43284;47.042;15.498;2023-02-21T03:37:31;97196.38;;;0.81;91.49
57442;BME280;43284;47.042;15.498;2023-02-21T03:39:58;97202.44;;;0.74;90.61
57442;BME280;43284;47.042;15.498;2023-02-21T03:42:23;97195.59;;;0.70;91.16
57442;BME280;43284;47.042;15.498;2023-02-21T03:44:49;97194.75;;;0.68;91.84
57442;BME280;43284;47.042;15.498;2023-02-21T03:47:15;97189.59;;;0.69;91.72
57442;BME280;43284;47.042;15.498;2023-02-21T03:49:41;97185.34;;;0.65;91.75
57442;BME280;43284;47.042;15.498;2023-02-21T03:52:09;97179.25;;;0.75;91.90
57442;BME280;43284;47.042;15.498;2023-02-21T03:54:37;97189.59;;;0.71;90.50
57442;BME280;43284;47.042;15.498;2023-02-21T03:57:03;97185.31;;;0.71;90.63
57442;BME280;43284;47.042;15.498;2023-02-21T03:59:29;97180.16;;;0.71;91.16
57442;BME280;43284;47.042;15.498;2023-02-21T04:01:55;97188.81;;;0.63;91.18
57442;BME280;43284;47.042;15.498;2023-02-21T04:04:20;97194.78;;;0.66;91.16
57442;BME280;43284;47.042;15.498;2023-02-21T04:06:46;97176.78;;;0.63;91.56
57442;BME280;43284;47.042;15.498;2023-02-21T04:09:11;97176.78;;;0.63;91.63
57442;BME280;43284;47.042;15.498;2023-02-21T04:11:37;97181.97;;;0.58;91.30
57442;BME280;43284;47.042;15.498;2023-02-21T04:14:03;97185.50;;;0.50;91.61
57442;BME280;43284;47.042;15.498;2023-02-21T04:16:29;97176.03;;;0.52;92.01
57442;BME280;43284;47.042;15.498;2023-02-21T04:18:55;97172.63;;;0.50;92.15
57442;BME280;43284;47.042;15.498;2023-02-21T04:21:21;97173.47;;;0.52;92.23
57442;BME280;43284;47.042;15.498;2023-02-21T04:23:47;97177.91;;;0.37;91.11
57442;BME280;43284;47.042;15.498;2023-02-21T04:26:13;97171.03;;;0.38;92.59
57442;BME280;43284;47.042;15.498;2023-02-21T04:28:39;97183.84;;;0.41;92.81
57442;BME280;43284;47.042;15.498;2023-02-21T04:31:04;97178.69;;;0.43;92.79
57442;BME280;43284;47.042;15.498;2023-02-21T04:33:30;97183.84;;;0.41;93.26
57442;BME280;43284;47.042;15.498;2023-02-21T04:35:56;97177.84;;;0.42;92.78
57442;BME280;43284;47.042;15.498;2023-02-21T04:38:22;97186.41;;;0.41;92.75
57442;BME280;43284;47.042;15.498;2023-02-21T04:40:47;97171.88;;;0.38;92.49
57442;BME280;43284;47.042;15.498;2023-02-21T04:43:13;97178.78;;;0.33;91.90
57442;BME280;43284;47.042;15.498;2023-02-21T04:45:38;97177.09;;;0.31;91.99
57442;BME280;43284;47.042;15.498;2023-02-21T04:48:42;97192.44;;;0.38;91.87
57442;BME280;43284;47.042;15.498;2023-02-21T04:51:10;97175.28;;;0.40;91.93
57442;BME280;43284;47.042;15.498;2023-02-21T04:53:36;97175.31;;;0.37;91.79
57442;BME280;43284;47.042;15.498;2023-02-21T04:56:02;97170.16;;;0.39;92.30
57442;BME280;43284;47.042;15.498;2023-02-21T04:58:27;97163.28;;;0.41;91.80
57442;BME280;43284;47.042;15.498;2023-02-21T05:00:53;97164.91;;;0.50;90.95
57442;BME280;43284;47.042;15.498;2023-02-21T05:03:19;97174.41;;;0.45;90.79
57442;BME280;43284;47.042;15.498;2023-02-21T05:05:44;97168.41;;;0.41;91.27
57442;BME280;43284;47.042;15.498;2023-02-21T05:08:10;97160.69;;;0.41;91.81
57442;BME280;43284;47.042;15.498;2023-02-21T05:10:35;97159.00;;;0.38;92.04
57442;BME280;43284;47.042;15.498;2023-02-21T05:13:01;97164.19;;;0.32;91.50
57442;BME280;43284;47.042;15.498;2023-02-21T05:15:27;97151.38;;;0.28;91.69
57442;BME280;43284;47.042;15.498;2023-02-21T05:17:52;97159.97;;;0.24;92.15
57442;BME280;43284;47.042;15.498;2023-02-21T05:20:18;97150.53;;;0.26;92.72
57442;BME280;43284;47.042;15.498;2023-02-21T05:22:44;97155.69;;;0.27;92.21
57442;BME280;43284;47.042;15.498;2023-02-21T05:25:17;97159.97;;;0.25;92.04
57442;BME280;43284;47.042;15.498;2023-02-21T05:27:45;97151.44;;;0.23;92.03
57442;BME280;43284;47.042;15.498;2023-02-21T05:30:12;97149.75;;;0.20;92.38
57442;BME280;43284;47.042;15.498;2023-02-21T05:32:39;97164.25;;;0.29;91.85
57442;BME280;43284;47.042;15.498;2023-02-21T05:35:05;97159.19;;;0.20;91.86
57442;BME280;43284;47.042;15.498;2023-02-21T05:37:31;97152.31;;;0.19;92.30
57442;BME280;43284;47.042;15.498;2023-02-21T05:39:57;97150.66;;;0.13;92.05
57442;BME280;43284;47.042;15.498;2023-02-21T05:42:22;97148.09;;;0.09;92.52
57442;BME280;43284;47.042;15.498;2023-02-21T05:44:48;97163.56;;;0.04;92.02
57442;BME280;43284;47.042;15.498;2023-02-21T05:47:14;97152.44;;;0.05;92.41
57442;BME280;43284;47.042;15.498;2023-02-21T05:49:41;97160.13;;;0.04;92.19
57442;BME280;43284;47.042;15.498;2023-02-21T05:52:10;97160.97;;;0.04;92.28
57442;BME280;43284;47.042;15.498;2023-02-21T05:54:36;97165.34;;;-0.06;91.30
57442;BME280;43284;47.042;15.498;2023-02-21T05:57:01;97161.94;;;-0.06;91.48
57442;BME280;43284;47.042;15.498;2023-02-21T05:59:27;97164.50;;;-0.06;91.79
57442;BME280;43284;47.042;15.498;2023-02-21T06:01:53;97171.38;;;-0.08;91.85
57442;BME280;43284;47.042;15.498;2023-02-21T06:04:19;97168.75;;;-0.07;92.53
57442;BME280;43284;47.042;15.498;2023-02-21T06:06:45;97165.34;;;-0.07;92.68
57442;BME280;43284;47.042;15.498;2023-02-21T06:09:11;97171.31;;;-0.07;92.48
57442;BME280;43284;47.042;15.498;2023-02-21T06:11:38;97167.09;;;-0.15;92.07
57442;BME280;43284;47.042;15.498;2023-02-21T06:14:12;97173.97;;;-0.14;92.25
57442;BME280;43284;47.042;15.498;2023-02-21T06:16:39;97176.56;;;-0.21;91.91
57442;BME280;43284;47.042;15.498;2023-02-21T06:19:06;97164.53;;;-0.15;92.46
57442;BME280;43284;47.042;15.498;2023-02-21T06:21:33;97171.41;;;-0.13;93.18
57442;BME280;43284;47.042;15.498;2023-02-21T06:24:00;97183.38;;;-0.10;93.05
57442;BME280;43284;47.042;15.498;2023-02-21T06:26:26;97178.22;;;-0.12;92.80
57442;BME280;43284;47.042;15.498;2023-02-21T06:28:52;97185.09;;;-0.11;92.87
57442;BME280;43284;47.042;15.498;2023-02-21T06:31:18;97179.94;;;-0.11;93.02
57442;BME280;43284;47.042;15.498;2023-02-21T06:33:45;97189.34;;;-0.10;93.14
57442;BME280;43284;47.042;15.498;2023-02-21T06:36:15;97185.91;;;-0.07;93.41
57442;BME280;43284;47.042;15.498;2023-02-21T06:38:44;97195.31;;;-0.02;93.10
57442;BME280;43284;47.042;15.498;2023-02-21T06:41:10;97184.13;;;0.01;93.72
57442;BME280;43284;47.042;15.498;2023-02-21T06:43:39;97190.09;;;0.06;94.17
57442;BME280;43284;47.042;15.498;2023-02-21T06:46:04;97191.75;;;0.18;94.30
57442;BME280;43284;47.042;15.498;2023-02-21T06:48:30;97190.91;;;0.16;93.39
57442;BME280;43284;47.042;15.498;2023-02-21T06:50:56;97202.84;;;0.23;93.90
57442;BME280;43284;47.042;15.498;2023-02-21T06:53:21;97201.03;;;0.37;93.98
57442;BME280;43284;47.042;15.498;2023-02-21T06:55:47;97198.44;;;0.40;94.32
57442;BME280;43284;47.042;15.498;2023-02-21T06:58:13;97206.09;;;0.45;94.46
57442;BME280;43284;47.042;15.498;2023-02-21T07:00:38;97207.75;;;0.52;94.52
57442;BME280;43284;47.042;15.498;2023-02-21T07:03:04;97199.09;;;0.66;94.64
57442;BME280;43284;47.042;15.498;2023-02-21T07:05:30;97199.84;;;0.77;94.71
57442;BME280;43284;47.042;15.498;2023-02-21T07:08:02;97209.94;;;0.94;94.68
57442;BME280;43284;47.042;15.498;2023-02-21T07:10:28;97206.38;;;1.09;94.60
57442;BME280;43284;47.042;15.498;2023-02-21T07:12:55;97208.84;;;1.18;94.48
57442;BME280;43284;47.042;15.498;2023-02-21T07:15:20;97203.69;;;1.21;94.49
57442;BME280;43284;47.042;15.498;2023-02-21T07:17:46;97206.75;;;1.54;95.33
57442;BME280;43284;47.042;15.498;2023-02-21T07:20:12;97198.06;;;1.61;94.72
57442;BME280;43284;47.042;15.498;2023-02-21T07:22:37;97211.72;;;1.66;94.49
57442;BME280;43284;47.042;15.498;2023-02-21T07:25:03;97206.81;;;2.13;93.54
57442;BME280;43284;47.042;15.498;2023-02-21T07:27:29;97206.00;;;2.09;93.09
57442;BME280;43284;47.042;15.498;2023-02-21T07:29:54;97208.88;;;2.48;92.36
57442;BME280;43284;47.042;15.498;2023-02-21T07:32:20;97204.47;;;2.55;91.55
57442;BME280;43284;47.042;15.498;2023-02-21T07:34:47;97206.22;;;2.53;91.63
57442;BME280;43284;47.042;15.498;2023-02-21T07:37:13;97196.47;;;2.70;90.68
57442;BME280;43284;47.042;15.498;2023-02-21T07:39:38;97204.91;;;2.80;88.89
57442;BME280;43284;47.042;15.498;2023-02-21T07:42:04;97203.09;;;2.86;89.02
57442;BME280;43284;47.042;15.498;2023-02-21T07:44:32;97196.66;;;3.09;89.37
57442;BME280;43284;47.042;15.498;2023-02-21T07:46:58;97201.66;;;3.17;88.54
57442;BME280;43284;47.042;15.498;2023-02-21T07:49:23;97202.38;;;3.25;88.01
57442;BME280;43284;47.042;15.498;2023-02-21T07:51:49;97203.81;;;3.41;86.42
57442;BME280;43284;47.042;15.498;2023-02-21T07:54:15;97208.81;;;3.47;85.69
57442;BME280;43284;47.042;15.498;2023-02-21T07:56:46;97199.19;;;3.57;85.52
57442;BME280;43284;47.042;15.498;2023-02-21T07:59:14;97193.63;;;3.76;83.93
57442;BME280;43284;47.042;15.498;2023-02-21T08:01:39;97205.56;;;3.83;83.51
57442;BME280;43284;47.042;15.498;2023-02-21T08:04:05;97201.09;;;4.64;79.68
57442;BME280;43284;47.042;15.498;2023-02-21T08:06:33;97195.28;;;4.54;78.92
57442;BME280;43284;47.042;15.498;2023-02-21T08:08:59;97189.38;;;4.49;79.65
57442;BME280;43284;47.042;15.498;2023-02-21T08:11:24;97190.03;;;4.59;79.42
57442;BME280;43284;47.042;15.498;2023-02-21T08:13:50;97193.25;;;4.67;77.94
57442;BME280;43284;47.042;15.498;2023-02-21T08:16:16;97188.75;;;4.75;76.06
57442;BME280;43284;47.042;15.498;2023-02-21T08:18:41;97185.78;;;5.24;77.13
57442;BME280;43284;47.042;15.498;2023-02-21T08:21:09;97186.34;;;5.33;76.75
57442;BME280;43284;47.042;15.498;2023-02-21T08:23:35;97187.47;;;5.56;74.89
57442;BME280;43284;47.042;15.498;2023-02-21T08:26:02;97192.25;;;5.70;75.61
57442;BME280;43284;47.042;15.498;2023-02-21T08:28:29;97192.72;;;6.42;71.31
57442;BME280;43284;47.042;15.498;2023-02-21T08:30:54;97178.75;;;6.46;69.00
57442;BME280;43284;47.042;15.498;2023-02-21T08:33:20;97193.72;;;6.38;69.68
57442;BME280;43284;47.042;15.498;2023-02-21T08:35:46;97195.78;;;6.55;68.58
57442;BME280;43284;47.042;15.498;2023-02-21T08:38:11;97194.00;;;6.57;68.13
57442;BME280;43284;47.042;15.498;2023-02-21T08:40:37;97189.31;;;7.20;66.04
57442;BME280;43284;47.042;15.498;2023-02-21T08:43:03;97196.44;;;7.38;66.00
57442;BME280;43284;47.042;15.498;2023-02-21T08:45:30;97188.16;;;7.76;64.63
57442;BME280;43284;47.042;15.498;2023-02-21T08:47:56;97190.19;;;7.91;64.21
57442;BME280;43284;47.042;15.498;2023-02-21T08:50:24;97190.34;;;8.10;63.73
57442;BME280;43284;47.042;15.498;2023-02-21T08:52:50;97180.50;;;8.18;61.88
57442;BME280;43284;47.042;15.498;2023-02-21T08:55:17;97181.56;;;8.58;61.25
57442;BME280;43284;47.042;15.498;2023-02-21T08:57:44;97183.34;;;8.78;59.93
57442;BME280;43284;47.042;15.498;2023-02-21T09:00:13;97180.19;;;8.92;59.05
57442;BME280;43284;47.042;15.498;2023-02-21T09:02:39;97179.19;;;9.15;58.56
57442;BME280;43284;47.042;15.498;2023-02-21T09:05:14;97180.56;;;9.24;58.76
57442;BME280;43284;47.042;15.498;2023-02-21T09:07:41;97190.88;;;9.47;58.32
57442;BME280;43284;47.042;15.498;2023-02-21T09:10:07;97188.56;;;9.60;58.91
57442;BME280;43284;47.042;15.498;2023-02-21T09:12:35;97189.56;;;9.58;58.13
57442;BME280;43284;47.042;15.498;2023-02-21T09:15:01;97187.16;;;9.72;57.64
57442;BME280;43284;47.042;15.498;2023-02-21T09:17:27;97178.63;;;9.87;56.76
57442;BME280;43284;47.042;15.498;2023-02-21T09:19:53;97185.78;;;9.84;55.50
57442;BME280;43284;47.042;15.498;2023-02-21T09:22:18;97188.75;;;9.95;56.26
57442;BME280;43284;47.042;15.498;2023-02-21T09:24:44;97190.44;;;10.15;56.22
57442;BME280;43284;47.042;15.498;2023-02-21T09:27:10;97188.03;;;10.29;57.07
57442;BME280;43284;47.042;15.498;2023-02-21T09:29:36;97180.91;;;10.33;55.65
57442;BME280;43284;47.042;15.498;2023-02-21T09:32:03;97183.03;;;10.44;53.22
57442;BME280;43284;47.042;15.498;2023-02-21T09:34:29;97180.28;;;10.64;52.40
57442;BME280;43284;47.042;15.498;2023-02-21T09:36:55;97183.69;;;10.66;49.77
57442;BME280;43284;47.042;15.498;2023-02-21T09:39:21;97182.09;;;10.81;50.39
57442;BME280;43284;47.042;15.498;2023-02-21T09:41:48;97186.78;;;10.92;51.50
57442;BME280;43284;47.042;15.498;2023-02-21T09:44:23;97181.31;;;10.97;51.16
57442;BME280;43284;47.042;15.498;2023-02-21T09:47:01;97183.47;;;10.88;52.07
57442;BME280;43284;47.042;15.498;2023-02-21T09:49:36;97179.66;;;10.96;52.31
57442;BME280;43284;47.042;15.498;2023-02-21T09:52:04;97182.47;;;11.26;52.12
57442;BME280;43284;47.042;15.498;2023-02-21T09:54:43;97183.34;;;11.09;51.40
57442;BME280;43284;47.042;15.498;2023-02-21T09:57:14;97183.09;;;11.31;50.91
57442;BME280;43284;47.042;15.498;2023-02-21T09:59:40;97180.25;;;11.36;50.52
57442;BME280;43284;47.042;15.498;2023-02-21T10:02:28;97187.25;;;11.35;50.59
57442;BME280;43284;47.042;15.498;2023-02-21T10:08:13;97184.47;;;11.71;48.59
57442;BME280;43284;47.042;15.498;2023-02-21T10:10:49;97177.81;;;11.99;48.43
57442;BME280;43284;47.042;15.498;2023-02-21T10:13:45;97182.88;;;12.02;48.49
57442;BME280;43284;47.042;15.498;2023-02-21T10:21:39;97171.66;;;12.32;46.88
57442;BME280;43284;47.042;15.498;2023-02-21T10:24:15;97168.50;;;12.41;45.17
57442;BME280;43284;47.042;15.498;2023-02-21T10:26:49;97172.28;;;12.67;46.43
57442;BME280;43284;47.042;15.498;2023-02-21T10:29:24;97177.94;;;12.75;45.10
57442;BME280;43284;47.042;15.498;2023-02-21T10:31:57;97174.34;;;12.62;45.43
57442;BME280;43284;47.042;15.498;2023-02-21T10:34:27;97169.22;;;13.05;43.56
57442;BME280;43284;47.042;15.498;2023-02-21T10:36:54;97170.84;;;13.08;43.58
57442;BME280;43284;47.042;15.498;2023-02-21T10:39:34;97171.13;;;13.17;40.95
57442;BME280;43284;47.042;15.498;2023-02-21T10:42:02;97161.97;;;13.25;42.11
57442;BME280;43284;47.042;15.498;2023-02-21T10:44:30;97160.91;;;13.13;42.21
57442;BME280;43284;47.042;15.498;2023-02-21T10:47:03;97165.41;;;13.55;40.20
57442;BME280;43284;47.042;15.498;2023-02-21T10:52:49;97159.81;;;13.76;38.22
57442;BME280;43284;47.042;15.498;2023-02-21T10:55:20;97153.72;;;13.75;40.65
57442;BME280;43284;47.042;15.498;2023-02-21T10:57:54;97149.63;;;13.98;39.36
57442;BME280;43284;47.042;15.498;2023-02-21T11:00:38;97153.19;;;14.12;39.36
57442;BME280;43284;47.042;15.498;2023-02-21T11:05:55;97137.75;;;14.34;38.86
57442;BME280;43284;47.042;15.498;2023-02-21T11:08:41;97130.19;;;14.42;39.06
57442;BME280;43284;47.042;15.498;2023-02-21T11:11:07;97128.44;;;14.43;37.86
57442;BME280;43284;47.042;15.498;2023-02-21T11:13:33;97125.94;;;14.54;37.46
57442;BME280;43284;47.042;15.498;2023-02-21T11:16:18;97128.38;;;14.97;40.36
57442;BME280;43284;47.042;15.498;2023-02-21T11:19:03;97126.91;;;15.06;40.07
57442;BME280;43284;47.042;15.498;2023-02-21T11:21:29;97121.13;;;15.01;39.87
57442;BME280;43284;47.042;15.498;2023-02-21T11:23:59;97100.59;;;15.32;39.25
57442;BME280;43284;47.042;15.498;2023-02-21T11:26:36;97102.00;;;15.24;35.56
57442;BME280;43284;47.042;15.498;2023-02-21T11:29:08;97104.81;;;15.60;38.54
57442;BME280;43284;47.042;15.498;2023-02-21T11:31:35;97101.75;;;15.53;35.13
57442;BME280;43284;47.042;15.498;2023-02-21T11:34:04;97100.81;;;15.54;36.83
57442;BME280;43284;47.042;15.498;2023-02-21T11:36:33;97092.97;;;15.91;35.14
57442;BME280;43284;47.042;15.498;2023-02-21T11:39:00;97088.25;;;15.83;35.13
57442;BME280;43284;47.042;15.498;2023-02-21T11:43:57;97094.34;;;15.97;35.71
57442;BME280;43284;47.042;15.498;2023-02-21T11:46:46;97092.81;;;15.81;36.64
57442;BME280;43284;47.042;15.498;2023-02-21T11:49:19;97088.72;;;16.38;35.85
57442;BME280;43284;47.042;15.498;2023-02-21T11:51:55;97083.59;;;16.24;35.72
57442;BME280;43284;47.042;15.498;2023-02-21T11:54:27;97078.75;;;16.42;35.18
57442;BME280;43284;47.042;15.498;2023-02-21T12:13:57;97048.66;;;17.49;33.79
57442;BME280;43284;47.042;15.498;2023-02-21T12:16:40;97047.63;;;17.52;34.18
57442;BME280;43284;47.042;15.498;2023-02-21T12:22:35;97035.19;;;17.75;32.42
57442;BME280;43284;47.042;15.498;2023-02-21T12:25:14;97038.09;;;17.71;31.17
57442;BME280;43284;47.042;15.498;2023-02-21T12:30:26;97033.66;;;17.61;31.34
57442;BME280;43284;47.042;15.498;2023-02-21T12:36:14;97022.22;;;17.94;33.26
57442;BME280;43284;47.042;15.498;2023-02-21T12:38:52;97020.38;;;18.06;31.90
57442;BME280;43284;47.042;15.498;2023-02-21T12:44:16;97009.44;;;18.10;33.08
57442;BME280;43284;47.042;15.498;2023-02-21T12:52:43;96994.44;;;18.32;30.70
57442;BME280;43284;47.042;15.498;2023-02-21T12:55:25;96992.88;;;18.29;30.18
57442;BME280;43284;47.042;15.498;2023-02-21T12:57:57;96981.03;;;18.66;29.02
57442;BME280;43284;47.042;15.498;2023-02-21T13:00:27;96988.53;;;18.61;28.71
57442;BME280;43284;47.042;15.498;2023-02-21T13:06:14;96980.22;;;18.86;28.27
57442;BME280;43284;47.042;15.498;2023-02-21T13:09:08;96976.56;;;19.08;28.48
57442;BME280;43284;47.042;15.498;2023-02-21T13:11:45;96973.34;;;19.35;28.45
57442;BME280;43284;47.042;15.498;2023-02-21T13:14:23;96970.72;;;19.45;27.55
57442;BME280;43284;47.042;15.498;2023-02-21T13:16:54;96963.31;;;19.39;26.72
57442;BME280;43284;47.042;15.498;2023-02-21T13:19:20;96962.47;;;19.39;27.47
57442;BME280;43284;47.042;15.498;2023-02-21T13:24:56;96962.81;;;19.65;26.73
57442;BME280;43284;47.042;15.498;2023-02-21T13:27:42;96956.47;;;19.87;27.09
57442;BME280;43284;47.042;15.498;2023-02-21T13:30:20;96957.84;;;19.71;25.52
57442;BME280;43284;47.042;15.498;2023-02-21T13:32:55;96955.31;;;19.70;26.10
57442;BME280;43284;47.042;15.498;2023-02-21T13:35:48;96946.84;;;19.95;25.88
57442;BME280;43284;47.042;15.498;2023-02-21T13:38:17;96948.53;;;20.06;25.93
57442;BME280;43284;47.042;15.498;2023-02-21T13:41:06;96944.63;;;20.01;25.67
57442;BME280;43284;47.042;15.498;2023-02-21T13:43:36;96943.91;;;19.79;24.97
57442;BME280;43284;47.042;15.498;2023-02-21T14:02:57;96939.19;;;20.22;25.25
57442;BME280;43284;47.042;15.498;2023-02-21T14:05:24;96934.41;;;19.96;25.28
57442;BME280;43284;47.042;15.498;2023-02-21T14:07:59;96938.34;;;19.92;24.00
57442;BME280;43284;47.042;15.498;2023-02-21T14:10:36;96927.00;;;19.70;23.99
57442;BME280;43284;47.042;15.498;2023-02-21T14:13:15;96934.28;;;19.88;24.70
57442;BME280;43284;47.042;15.498;2023-02-21T14:15:44;96929.94;;;19.87;25.35
57442;BME280;43284;47.042;15.498;2023-02-21T14:18:17;96937.91;;;19.87;25.37
57442;BME280;43284;47.042;15.498;2023-02-21T14:20:47;96943.63;;;19.72;24.64
57442;BME280;43284;47.042;15.498;2023-02-21T14:23:16;96939.28;;;19.71;25.31
57442;BME280;43284;47.042;15.498;2023-02-21T14:25:54;96938.75;;;19.78;25.43
57442;BME280;43284;47.042;15.498;2023-02-21T14:28:57;96934.56;;;19.75;24.69
57442;BME280;43284;47.042;15.498;2023-02-21T14:31:47;96932.59;;;19.77;25.43
57442;BME280;43284;47.042;15.498;2023-02-21T14:34:16;96927.34;;;19.56;25.51
57442;BME280;43284;47.042;15.498;2023-02-21T14:36:45;96931.09;;;19.44;26.06
57442;BME280;43284;47.042;15.498;2023-02-21T14:39:14;96935.59;;;19.63;25.49
57442;BME280;43284;47.042;15.498;2023-02-21T14:44:38;96936.50;;;19.32;26.19
57442;BME280;43284;47.042;15.498;2023-02-21T14:47:27;96935.38;;;19.25;26.36
57442;BME280;43284;47.042;15.498;2023-02-21T15:01:54;96938.09;;;18.62;25.29
57442;BME280;43284;47.042;15.498;2023-02-21T15:04:32;96938.59;;;18.56;25.61
57442;BME280;43284;47.042;15.498;2023-02-21T15:07:31;96944.16;;;18.53;26.34
57442;BME280;43284;47.042;15.498;2023-02-21T15:10:06;96942.88;;;18.47;27.96
57442;BME280;43284;47.042;15.498;2023-02-21T15:12:40;96945.56;;;18.36;25.64
57442;BME280;43284;47.042;15.498;2023-02-21T15:15:20;96949.88;;;18.16;26.44
57442;BME280;43284;47.042;15.498;2023-02-21T15:20:21;96948.50;;;18.01;26.89
57442;BME280;43284;47.042;15.498;2023-02-21T15:22:54;96951.56;;;17.85;26.55
57442;BME280;43284;47.042;15.498;2023-02-21T15:25:21;96954.94;;;17.76;27.97